DETGA EDDG-EDLW
Flight info
| Callsign | DETGA |
|---|---|
| Flight time | 0h 22m |
| Altitude | 3000 |
| Route | EDDG/25 VFR |
| Aircraft | C172/L-VGD/A |
Departure
| Time | 2026-05-07 17:28 |
|---|---|
| Airport | Münster Osnabrück Airport (EDDG) |
Arrival
| Time | 2026-05-07 17:51 |
|---|---|
| Airport | Dortmund Airport (EDLW) |
| Time | Latitude | Longitude | Altitude | Speed | Heading |
|---|---|---|---|---|---|
| 2026-05-07 17:10 | 52.13129 | 7.68336 | 162 ft | 0 kts | 91° |
| 2026-05-07 17:23 | 52.13130 | 7.68345 | 162 ft | 5 kts | 84° |
| 2026-05-07 17:23 | 52.13165 | 7.68370 | 162 ft | 9 kts | 340° |
| 2026-05-07 17:23 | 52.13227 | 7.68334 | 162 ft | 10 kts | 341° |
| 2026-05-07 17:23 | 52.13290 | 7.68302 | 162 ft | 7 kts | 342° |
| 2026-05-07 17:24 | 52.13310 | 7.68291 | 162 ft | 0 kts | 340° |
| 2026-05-07 17:24 | 52.13317 | 7.68287 | 162 ft | 3 kts | 340° |
| 2026-05-07 17:25 | 52.13329 | 7.68279 | 163 ft | 0 kts | 339° |
| 2026-05-07 17:26 | 52.13333 | 7.68277 | 163 ft | 4 kts | 340° |
| 2026-05-07 17:26 | 52.13386 | 7.68243 | 163 ft | 9 kts | 331° |
| 2026-05-07 17:26 | 52.13403 | 7.68196 | 163 ft | 0 kts | 251° |
| 2026-05-07 17:27 | 52.13377 | 7.68100 | 163 ft | 32 kts | 248° |
| 2026-05-07 17:27 | 52.13242 | 7.67459 | 204 ft | 79 kts | 251° |
| 2026-05-07 17:28 | 52.13048 | 7.66552 | 393 ft | 89 kts | 248° |
| 2026-05-07 17:28 | 52.12653 | 7.65875 | 656 ft | 86 kts | 192° |
| 2026-05-07 17:28 | 52.12088 | 7.66075 | 820 ft | 90 kts | 141° |
| 2026-05-07 17:28 | 52.11608 | 7.66853 | 874 ft | 103 kts | 133° |
| 2026-05-07 17:29 | 52.11026 | 7.67484 | 1125 ft | 101 kts | 148° |
| 2026-05-07 17:29 | 52.10355 | 7.67903 | 1327 ft | 106 kts | 162° |
| 2026-05-07 17:29 | 52.09616 | 7.68098 | 1449 ft | 109 kts | 167° |
| 2026-05-07 17:29 | 52.08844 | 7.68211 | 1511 ft | 114 kts | 172° |
| 2026-05-07 17:30 | 52.08055 | 7.68201 | 1589 ft | 114 kts | 179° |
| 2026-05-07 17:30 | 52.07239 | 7.68110 | 1587 ft | 120 kts | 179° |
| 2026-05-07 17:30 | 52.06409 | 7.68050 | 1587 ft | 118 kts | 176° |
| 2026-05-07 17:30 | 52.05579 | 7.68016 | 1587 ft | 119 kts | 176° |
| 2026-05-07 17:31 | 52.04767 | 7.68012 | 1588 ft | 118 kts | 174° |
| 2026-05-07 17:31 | 52.03949 | 7.68029 | 1586 ft | 117 kts | 174° |
| 2026-05-07 17:31 | 52.03135 | 7.68065 | 1588 ft | 117 kts | 173° |
| 2026-05-07 17:31 | 52.02319 | 7.68113 | 1584 ft | 117 kts | 176° |
| 2026-05-07 17:32 | 52.01524 | 7.68033 | 1675 ft | 111 kts | 179° |
| 2026-05-07 17:32 | 52.00759 | 7.67953 | 1772 ft | 110 kts | 178° |
| 2026-05-07 17:32 | 52.00012 | 7.67867 | 1873 ft | 107 kts | 178° |
| 2026-05-07 17:32 | 51.99262 | 7.67776 | 1979 ft | 109 kts | 178° |
| 2026-05-07 17:33 | 51.98509 | 7.67691 | 2075 ft | 108 kts | 178° |
| 2026-05-07 17:33 | 51.97768 | 7.67610 | 2174 ft | 106 kts | 178° |
| 2026-05-07 17:33 | 51.97035 | 7.67530 | 2277 ft | 105 kts | 179° |
| 2026-05-07 17:33 | 51.96308 | 7.67452 | 2383 ft | 106 kts | 178° |
| 2026-05-07 17:34 | 51.95566 | 7.67378 | 2481 ft | 107 kts | 179° |
| 2026-05-07 17:34 | 51.94831 | 7.67306 | 2585 ft | 107 kts | 178° |
| 2026-05-07 17:34 | 51.94082 | 7.67234 | 2687 ft | 106 kts | 179° |
| 2026-05-07 17:34 | 51.93350 | 7.67168 | 2787 ft | 105 kts | 179° |
| 2026-05-07 17:35 | 51.92619 | 7.67111 | 2886 ft | 105 kts | 178° |
| 2026-05-07 17:35 | 51.91888 | 7.67058 | 2985 ft | 104 kts | 178° |
| 2026-05-07 17:35 | 51.91166 | 7.66983 | 2991 ft | 107 kts | 181° |
| 2026-05-07 17:35 | 51.90405 | 7.66866 | 2996 ft | 112 kts | 181° |
| 2026-05-07 17:36 | 51.89617 | 7.66754 | 2997 ft | 115 kts | 181° |
| 2026-05-07 17:36 | 51.88814 | 7.66643 | 3000 ft | 117 kts | 182° |
| 2026-05-07 17:36 | 51.88002 | 7.66535 | 2998 ft | 117 kts | 181° |
| 2026-05-07 17:36 | 51.87212 | 7.66435 | 3005 ft | 117 kts | 181° |
| 2026-05-07 17:37 | 51.86388 | 7.66327 | 2997 ft | 119 kts | 181° |
| 2026-05-07 17:37 | 51.85554 | 7.66219 | 2993 ft | 122 kts | 182° |
| 2026-05-07 17:37 | 51.84722 | 7.66114 | 2993 ft | 121 kts | 181° |
| 2026-05-07 17:37 | 51.83881 | 7.66011 | 2989 ft | 121 kts | 181° |
| 2026-05-07 17:38 | 51.83050 | 7.65909 | 2990 ft | 119 kts | 181° |
| 2026-05-07 17:38 | 51.82223 | 7.65803 | 2982 ft | 119 kts | 181° |
| 2026-05-07 17:38 | 51.81400 | 7.65703 | 2982 ft | 116 kts | 182° |
| 2026-05-07 17:38 | 51.80632 | 7.65559 | 2970 ft | 108 kts | 188° |
| 2026-05-07 17:39 | 51.79880 | 7.65320 | 2915 ft | 112 kts | 188° |
| 2026-05-07 17:39 | 51.79115 | 7.65083 | 2887 ft | 111 kts | 186° |
| 2026-05-07 17:39 | 51.78364 | 7.64843 | 2884 ft | 109 kts | 188° |
| 2026-05-07 17:39 | 51.77622 | 7.64617 | 2877 ft | 107 kts | 187° |
| 2026-05-07 17:40 | 51.76882 | 7.64387 | 2878 ft | 109 kts | 187° |
| 2026-05-07 17:40 | 51.76143 | 7.64160 | 2878 ft | 108 kts | 187° |
| 2026-05-07 17:40 | 51.75393 | 7.63930 | 2813 ft | 114 kts | 187° |
| 2026-05-07 17:40 | 51.74603 | 7.63685 | 2739 ft | 117 kts | 187° |
| 2026-05-07 17:41 | 51.73796 | 7.63432 | 2665 ft | 118 kts | 188° |
| 2026-05-07 17:41 | 51.72990 | 7.63181 | 2593 ft | 115 kts | 187° |
| 2026-05-07 17:41 | 51.72214 | 7.62934 | 2507 ft | 113 kts | 186° |
| 2026-05-07 17:41 | 51.71460 | 7.62684 | 2471 ft | 107 kts | 188° |
| 2026-05-07 17:42 | 51.70747 | 7.62446 | 2436 ft | 103 kts | 187° |
| 2026-05-07 17:42 | 51.70052 | 7.62211 | 2404 ft | 100 kts | 188° |
| 2026-05-07 17:42 | 51.69363 | 7.61980 | 2379 ft | 102 kts | 187° |
| 2026-05-07 17:42 | 51.68707 | 7.61766 | 2376 ft | 94 kts | 187° |
| 2026-05-07 17:43 | 51.68072 | 7.61557 | 2366 ft | 92 kts | 186° |
| 2026-05-07 17:43 | 51.67422 | 7.61336 | 2283 ft | 99 kts | 186° |
| 2026-05-07 17:43 | 51.66757 | 7.60951 | 2182 ft | 103 kts | 197° |
| 2026-05-07 17:43 | 51.66124 | 7.60432 | 2182 ft | 101 kts | 206° |
| 2026-05-07 17:44 | 51.65522 | 7.59891 | 2180 ft | 98 kts | 205° |
| 2026-05-07 17:44 | 51.64931 | 7.59366 | 2169 ft | 96 kts | 205° |
| 2026-05-07 17:44 | 51.64366 | 7.58855 | 2190 ft | 90 kts | 204° |
| 2026-05-07 17:44 | 51.63827 | 7.58362 | 2190 ft | 87 kts | 205° |
| 2026-05-07 17:45 | 51.63297 | 7.57892 | 2192 ft | 89 kts | 205° |
| 2026-05-07 17:45 | 51.62748 | 7.57401 | 2195 ft | 91 kts | 205° |
| 2026-05-07 17:45 | 51.62153 | 7.56891 | 2127 ft | 107 kts | 205° |
| 2026-05-07 17:45 | 51.61477 | 7.56271 | 2085 ft | 116 kts | 206° |
| 2026-05-07 17:46 | 51.60777 | 7.55616 | 2038 ft | 118 kts | 206° |
| 2026-05-07 17:46 | 51.60077 | 7.54968 | 2023 ft | 117 kts | 204° |
| 2026-05-07 17:46 | 51.59356 | 7.54312 | 1907 ft | 119 kts | 208° |
| 2026-05-07 17:46 | 51.58645 | 7.53757 | 1896 ft | 110 kts | 187° |
| 2026-05-07 17:47 | 51.57953 | 7.53893 | 1914 ft | 100 kts | 151° |
| 2026-05-07 17:47 | 51.57357 | 7.54538 | 1802 ft | 105 kts | 134° |
| 2026-05-07 17:47 | 51.56801 | 7.55297 | 1749 ft | 104 kts | 135° |
| 2026-05-07 17:47 | 51.56278 | 7.56078 | 1743 ft | 101 kts | 130° |
| 2026-05-07 17:48 | 51.55759 | 7.56827 | 1678 ft | 103 kts | 142° |
| 2026-05-07 17:48 | 51.55124 | 7.57424 | 1528 ft | 107 kts | 150° |
| 2026-05-07 17:48 | 51.54462 | 7.57907 | 1460 ft | 102 kts | 153° |
| 2026-05-07 17:48 | 51.53828 | 7.58345 | 1444 ft | 99 kts | 152° |
| 2026-05-07 17:49 | 51.53151 | 7.58646 | 1377 ft | 103 kts | 173° |
| 2026-05-07 17:49 | 51.52478 | 7.58278 | 1290 ft | 100 kts | 219° |
| 2026-05-07 17:49 | 51.52091 | 7.57418 | 1137 ft | 95 kts | 210° |
| 2026-05-07 17:49 | 51.51537 | 7.57489 | 1039 ft | 79 kts | 154° |
| 2026-05-07 17:50 | 51.51100 | 7.57966 | 943 ft | 72 kts | 114° |
| 2026-05-07 17:50 | 51.51036 | 7.58722 | 782 ft | 72 kts | 79° |
| 2026-05-07 17:50 | 51.51230 | 7.59489 | 692 ft | 76 kts | 60° |
| 2026-05-07 17:50 | 51.51488 | 7.60241 | 546 ft | 78 kts | 60° |
| 2026-05-07 17:51 | 51.51740 | 7.60951 | 433 ft | 65 kts | 61° |
| 2026-05-07 17:51 | 51.51928 | 7.61489 | 413 ft | 47 kts | 61° |
| 2026-05-07 17:51 | 51.52069 | 7.61891 | 410 ft | 37 kts | 60° |
| 2026-05-07 17:51 | 51.52177 | 7.62207 | 407 ft | 16 kts | 63° |
| 2026-05-07 17:52 | 51.52168 | 7.62334 | 406 ft | 12 kts | 147° |
| 2026-05-07 17:52 | 51.52143 | 7.62355 | 405 ft | 7 kts | 150° |
| 2026-05-07 17:52 | 51.52124 | 7.62372 | 405 ft | 0 kts | 152° |
| 2026-05-07 17:53 | 51.52118 | 7.62376 | 405 ft | 4 kts | 165° |
| 2026-05-07 17:53 | 51.52082 | 7.62399 | 405 ft | 9 kts | 173° |
| 2026-05-07 17:54 | 51.52016 | 7.62290 | 406 ft | 20 kts | 240° |
| 2026-05-07 17:54 | 51.51936 | 7.62065 | 408 ft | 26 kts | 240° |
| 2026-05-07 17:54 | 51.51843 | 7.61798 | 411 ft | 28 kts | 242° |
| 2026-05-07 17:54 | 51.51749 | 7.61529 | 414 ft | 28 kts | 240° |
| 2026-05-07 17:55 | 51.51655 | 7.61263 | 416 ft | 27 kts | 239° |
| 2026-05-07 17:55 | 51.51584 | 7.61070 | 418 ft | 11 kts | 207° |
| 2026-05-07 17:55 | 51.51529 | 7.61053 | 418 ft | 8 kts | 197° |
| 2026-05-07 17:55 | 51.51495 | 7.61007 | 419 ft | 6 kts | 227° |
| 2026-05-07 17:56 | 51.51451 | 7.60887 | 420 ft | 16 kts | 238° |
| 2026-05-07 17:56 | 51.51392 | 7.60723 | 422 ft | 17 kts | 240° |
| 2026-05-07 17:56 | 51.51335 | 7.60565 | 423 ft | 15 kts | 240° |
| 2026-05-07 17:56 | 51.51291 | 7.60431 | 424 ft | 13 kts | 242° |
| 2026-05-07 17:57 | 51.51251 | 7.60318 | 425 ft | 11 kts | 238° |
| 2026-05-07 17:57 | 51.51232 | 7.60250 | 425 ft | 8 kts | 219° |
| 2026-05-07 17:57 | 51.51196 | 7.60170 | 423 ft | 4 kts | 236° |
| 2026-05-07 17:57 | 51.51176 | 7.60161 | 425 ft | 3 kts | 163° |
| 2026-05-07 17:58 | 51.51160 | 7.60178 | 422 ft | 4 kts | 128° |
| 2026-05-07 17:58 | 51.51155 | 7.60206 | 425 ft | 3 kts | 89° |
| 2026-05-07 17:58 | 51.51168 | 7.60249 | 421 ft | 5 kts | 57° |
| 2026-05-07 17:58 | 51.51167 | 7.60306 | 425 ft | 6 kts | 112° |
| 2026-05-07 17:59 | 51.51165 | 7.60319 | 421 ft | 0 kts | 104° |